createdAt,value
2018-06-05T00:01:30.226Z,21.90
2018-06-05T00:03:57.563Z,22.90
2018-06-05T00:06:25.281Z,22.00
2018-06-05T00:08:52.624Z,22.00
2018-06-05T00:11:19.979Z,23.10
2018-06-05T00:13:47.294Z,23.20
2018-06-05T00:16:14.722Z,23.50
2018-06-05T00:18:42.153Z,22.50
2018-06-05T00:21:09.585Z,22.80
2018-06-05T00:23:36.916Z,22.70
2018-06-05T00:26:04.647Z,22.70
2018-06-05T00:28:31.982Z,23.40
2018-06-05T00:30:59.442Z,23.60
2018-06-05T00:33:26.766Z,23.30
2018-06-05T00:35:54.123Z,24.10
2018-06-05T00:38:21.492Z,24.60
2018-06-05T00:40:51.694Z,24.30
2018-06-05T00:43:19.423Z,23.50
2018-06-05T00:45:50.664Z,24.20
2018-06-05T00:48:18.935Z,25.30
2018-06-05T00:50:46.334Z,24.80
2018-06-05T00:53:13.718Z,24.70
2018-06-05T00:55:41.308Z,25.80
2018-06-05T00:58:09.538Z,25.60
2018-06-05T01:00:37.034Z,27.20
2018-06-05T01:03:04.389Z,26.70
2018-06-05T01:05:31.721Z,25.60
2018-06-05T01:07:59.032Z,25.10
2018-06-05T01:10:26.377Z,24.70
2018-06-05T01:12:53.704Z,25.00
2018-06-05T01:15:21.182Z,25.00
2018-06-05T01:17:48.601Z,24.70
2018-06-05T01:20:15.909Z,25.40
2018-06-05T01:25:10.586Z,26.00
2018-06-05T01:27:38.042Z,25.60
2018-06-05T01:30:05.487Z,25.20
2018-06-05T01:32:32.806Z,25.50
2018-06-05T01:35:00.111Z,25.80
2018-06-05T01:37:27.406Z,25.10
2018-06-05T01:39:54.869Z,25.10
2018-06-05T01:42:22.169Z,25.40
2018-06-05T01:44:49.499Z,25.00
2018-06-05T01:47:16.813Z,25.60
2018-06-05T01:49:44.318Z,25.40
2018-06-05T01:52:11.667Z,26.10
2018-06-05T01:54:39.160Z,26.00
2018-06-05T01:57:06.601Z,24.90
2018-06-05T01:59:33.997Z,25.30
2018-06-05T02:02:01.353Z,24.90
2018-06-05T02:04:28.669Z,24.50
2018-06-05T02:06:56.033Z,24.80
2018-06-05T02:09:23.428Z,25.30
2018-06-05T02:11:50.989Z,25.80
2018-06-05T02:14:18.322Z,25.50
2018-06-05T02:16:45.773Z,26.50
2018-06-05T02:19:13.116Z,25.60
2018-06-05T02:21:41.058Z,24.70
2018-06-05T02:24:08.393Z,24.90
2018-06-05T02:26:35.753Z,26.00
2018-06-05T02:29:03.126Z,25.30
2018-06-05T02:31:30.474Z,25.20
2018-06-05T02:33:57.809Z,25.60
2018-06-05T02:36:25.148Z,24.80
2018-06-05T02:38:52.749Z,24.60
2018-06-05T02:41:20.103Z,24.70
2018-06-05T02:43:47.454Z,24.40
2018-06-05T02:46:14.792Z,25.70
2018-06-05T02:48:42.139Z,25.20
2018-06-05T02:51:09.490Z,25.90
2018-06-05T02:53:38.149Z,24.60
2018-06-05T02:56:05.489Z,25.50
2018-06-05T02:58:32.967Z,25.70
2018-06-05T03:01:00.330Z,25.10
2018-06-05T03:05:55.018Z,24.90
2018-06-05T03:08:22.467Z,24.30
2018-06-05T03:10:49.879Z,23.80
2018-06-05T03:13:17.186Z,23.80
2018-06-05T03:15:45.940Z,25.00
2018-06-05T03:18:13.299Z,24.70
2018-06-05T03:20:40.627Z,25.10
2018-06-05T03:23:07.942Z,26.20
2018-06-05T03:25:35.261Z,25.90
2018-06-05T03:28:02.620Z,25.40
2018-06-05T03:30:29.926Z,24.90
2018-06-05T03:32:57.229Z,26.90
2018-06-05T03:35:24.677Z,27.50
2018-06-05T03:37:52.000Z,26.30
2018-06-05T03:40:19.407Z,26.70
2018-06-05T03:42:46.738Z,27.50
2018-06-05T03:45:14.064Z,27.50
2018-06-05T03:47:41.369Z,27.60
2018-06-05T03:50:08.673Z,27.10
2018-06-05T03:52:35.990Z,27.40
2018-06-05T03:55:04.762Z,28.10
2018-06-05T03:57:32.072Z,28.30
2018-06-05T03:59:59.402Z,29.00
2018-06-05T04:02:26.793Z,28.40
2018-06-05T04:04:54.157Z,28.50
2018-06-05T04:07:21.476Z,29.00
2018-06-05T04:09:48.831Z,29.20
2018-06-05T04:12:16.371Z,29.20
2018-06-05T04:14:43.681Z,32.20
2018-06-05T04:17:11.055Z,32.80
2018-06-05T04:19:38.525Z,33.00
2018-06-05T04:22:05.935Z,33.70
2018-06-05T04:24:33.251Z,33.80
2018-06-05T04:27:00.740Z,36.50
2018-06-05T04:29:28.009Z,36.60
2018-06-05T04:34:22.716Z,38.90
2018-06-05T04:36:50.051Z,39.00
2018-06-05T04:39:17.367Z,36.30
2018-06-05T04:41:44.735Z,38.90
2018-06-05T04:44:12.033Z,38.50
2018-06-05T04:46:41.119Z,38.90
2018-06-05T04:49:08.538Z,39.20
2018-06-05T04:51:35.849Z,39.30
2018-06-05T04:54:03.226Z,38.40
2018-06-05T04:56:30.546Z,36.80
2018-06-05T04:58:57.859Z,37.30
2018-06-05T05:01:25.200Z,37.80
2018-06-05T05:03:52.535Z,37.10
2018-06-05T05:06:19.872Z,38.20
2018-06-05T05:08:47.670Z,38.90
2018-06-05T05:11:15.275Z,39.10
2018-06-05T05:13:42.695Z,39.10
2018-06-05T05:16:10.150Z,41.10
2018-06-05T05:18:37.508Z,39.00
2018-06-05T05:21:04.996Z,39.60
2018-06-05T05:23:32.357Z,41.70
2018-06-05T05:25:59.693Z,41.90
2018-06-05T05:28:27.022Z,40.20
2018-06-05T05:30:54.397Z,40.50
2018-06-05T05:33:21.714Z,41.10
2018-06-05T05:35:49.129Z,39.30
2018-06-05T05:38:16.491Z,37.50
2018-06-05T05:40:43.826Z,38.10
2018-06-05T05:43:11.718Z,38.80
2018-06-05T05:45:39.246Z,37.50
2018-06-05T05:48:06.751Z,36.60
2018-06-05T05:50:34.082Z,36.20
2018-06-05T05:53:01.448Z,37.80
2018-06-05T05:55:29.136Z,36.90
2018-06-05T05:57:56.495Z,37.90
2018-06-05T06:00:23.903Z,35.00
2018-06-05T06:05:18.762Z,36.00
2018-06-05T06:07:46.080Z,34.50
2018-06-05T06:10:13.406Z,34.90
2018-06-05T06:15:08.383Z,33.30
2018-06-05T06:17:35.721Z,33.10
2018-06-05T06:20:03.256Z,32.90
2018-06-05T06:22:30.663Z,33.00
2018-06-05T06:24:57.986Z,33.20
2018-06-05T06:27:25.306Z,33.10
2018-06-05T06:29:52.623Z,32.70
2018-06-05T06:32:19.938Z,31.30
2018-06-05T06:34:47.250Z,31.50
2018-06-05T06:37:14.910Z,31.60
2018-06-05T06:42:09.588Z,30.30
2018-06-05T06:44:36.972Z,30.00
2018-06-05T06:47:04.647Z,29.40
2018-06-05T06:49:31.985Z,29.70
2018-06-05T06:51:59.314Z,28.40
2018-06-05T06:54:26.643Z,29.00
2018-06-05T06:56:54.037Z,29.90
2018-06-05T06:59:21.374Z,29.00
2018-06-05T07:01:48.707Z,29.00
2018-06-05T07:04:16.044Z,29.10
2018-06-05T07:06:43.387Z,28.10
2018-06-05T07:09:11.414Z,28.70
2018-06-05T07:11:38.854Z,28.20
2018-06-05T07:14:06.203Z,27.30
2018-06-05T07:16:33.710Z,28.40
2018-06-05T07:19:01.073Z,27.70
2018-06-05T07:21:28.470Z,27.40
2018-06-05T07:23:55.850Z,27.40
2018-06-05T07:26:23.246Z,28.00
2018-06-05T07:28:50.561Z,27.10
2018-06-05T07:31:18.106Z,27.40
2018-06-05T07:33:45.558Z,27.30
2018-06-05T07:36:12.916Z,27.30
2018-06-05T07:38:40.223Z,27.90
2018-06-05T07:41:07.761Z,26.60
2018-06-05T07:43:35.122Z,27.40
2018-06-05T07:46:02.466Z,27.70
2018-06-05T07:48:29.770Z,27.00
2018-06-05T07:50:57.083Z,26.60
2018-06-05T07:53:24.538Z,27.00
2018-06-05T07:55:51.956Z,27.40
2018-06-05T07:58:19.330Z,27.40
2018-06-05T08:00:51.670Z,26.50
2018-06-05T08:03:19.430Z,27.20
2018-06-05T08:05:46.791Z,26.20
2018-06-05T08:08:14.544Z,26.00
2018-06-05T08:10:41.926Z,26.80
2018-06-05T08:13:09.446Z,25.80
2018-06-05T08:15:36.806Z,24.80
2018-06-05T08:18:16.997Z,24.00
2018-06-05T08:20:44.445Z,24.40
2018-06-05T08:23:14.257Z,23.60
2018-06-05T08:25:41.639Z,24.00
2018-06-05T08:28:08.980Z,25.20
2018-06-05T08:30:36.321Z,24.20
2018-06-05T08:33:03.725Z,21.80
2018-06-05T08:35:37.259Z,22.80
2018-06-05T08:38:04.688Z,22.10
2018-06-05T08:40:32.049Z,22.00
2018-06-05T08:42:59.406Z,21.20
2018-06-05T08:45:26.852Z,20.10
2018-06-05T08:47:57.251Z,20.00
2018-06-05T08:50:26.062Z,20.30
2018-06-05T08:52:53.454Z,20.70
2018-06-05T08:55:20.875Z,21.20
2018-06-05T09:00:15.555Z,21.20
2018-06-05T09:02:45.686Z,20.50
2018-06-05T09:05:13.344Z,19.30
2018-06-05T09:07:40.695Z,19.20
2018-06-05T09:10:08.158Z,19.20
2018-06-05T09:12:35.526Z,19.20
2018-06-05T09:15:02.894Z,19.50
2018-06-05T09:17:30.333Z,19.30
2018-06-05T09:19:57.630Z,19.00
2018-06-05T09:22:25.102Z,18.90
2018-06-05T09:24:52.410Z,17.90
2018-06-05T09:27:19.718Z,18.90
2018-06-05T09:29:47.067Z,18.00
2018-06-05T09:32:14.392Z,18.20
2018-06-05T09:34:41.785Z,18.10
2018-06-05T09:39:36.427Z,18.10
2018-06-05T09:42:03.702Z,18.20
2018-06-05T09:44:31.043Z,18.00
2018-06-05T09:46:58.387Z,18.20
2018-06-05T09:49:25.825Z,18.20
2018-06-05T09:51:53.158Z,18.40
2018-06-05T09:54:20.561Z,18.20
2018-06-05T09:56:47.901Z,17.10
2018-06-05T09:59:15.499Z,16.80
2018-06-05T10:01:42.802Z,16.00
2018-06-05T10:04:10.107Z,15.80
2018-06-05T10:06:37.459Z,15.80
2018-06-05T10:09:05.929Z,15.50
2018-06-05T10:11:33.264Z,15.30
2018-06-05T10:14:00.578Z,15.00
2018-06-05T10:16:27.935Z,14.10
2018-06-05T10:18:55.269Z,14.70
2018-06-05T10:21:22.584Z,14.20
2018-06-05T10:23:49.926Z,14.30
2018-06-05T10:26:17.332Z,14.80
2018-06-05T10:28:44.658Z,14.90
2018-06-05T10:31:11.998Z,14.60
2018-06-05T10:33:39.375Z,14.50
2018-06-05T10:36:06.736Z,15.30
2018-06-05T10:38:34.074Z,14.80
2018-06-05T10:41:01.377Z,14.50
2018-06-05T10:43:28.674Z,13.90
2018-06-05T10:45:58.333Z,14.00
2018-06-05T10:48:26.065Z,13.60
2018-06-05T10:50:53.430Z,12.80
2018-06-05T10:53:20.727Z,12.70
2018-06-05T10:55:48.105Z,13.00
2018-06-05T10:58:15.478Z,12.50
2018-06-05T11:00:46.394Z,13.30
2018-06-05T11:03:13.758Z,12.50
2018-06-05T11:05:41.123Z,12.50
2018-06-05T11:08:08.463Z,12.10
2018-06-05T11:10:35.774Z,12.40
2018-06-05T11:13:07.968Z,12.80
2018-06-05T11:15:35.291Z,12.00
2018-06-05T11:18:02.595Z,10.50
2018-06-05T11:20:29.936Z,10.60
2018-06-05T11:22:57.298Z,11.10
2018-06-05T11:25:24.714Z,9.80
2018-06-05T11:27:52.038Z,8.70
2018-06-05T11:30:22.504Z,9.90
2018-06-05T11:32:49.894Z,9.60
2018-06-05T11:35:17.241Z,9.40
2018-06-05T11:37:44.700Z,9.90
2018-06-05T11:40:12.048Z,10.10
2018-06-05T11:42:39.418Z,9.30
2018-06-05T11:45:10.301Z,9.40
2018-06-05T11:47:37.630Z,9.60
2018-06-05T11:50:04.950Z,9.90
2018-06-05T11:52:32.270Z,9.30
2018-06-05T11:54:59.605Z,9.70
2018-06-05T11:57:31.514Z,10.00
2018-06-05T11:59:59.827Z,10.60
2018-06-05T12:02:27.213Z,10.40
2018-06-05T12:04:54.518Z,10.20
2018-06-05T12:07:21.998Z,9.30
2018-06-05T12:09:49.431Z,9.60
2018-06-05T12:12:21.301Z,10.30
2018-06-05T12:14:48.709Z,8.80
2018-06-05T12:17:16.050Z,8.60
2018-06-05T12:22:10.715Z,8.70
2018-06-05T12:24:38.031Z,8.80
2018-06-05T12:27:09.781Z,7.30
2018-06-05T12:29:37.116Z,7.70
2018-06-05T12:32:04.515Z,8.10
2018-06-05T12:34:31.851Z,7.20
2018-06-05T12:36:59.182Z,6.00
2018-06-05T12:39:26.495Z,6.50
2018-06-05T12:41:53.847Z,6.60
2018-06-05T12:44:25.717Z,6.70
2018-06-05T12:46:53.068Z,6.30
2018-06-05T12:49:20.496Z,5.80
2018-06-05T12:51:47.826Z,4.80
2018-06-05T12:54:15.186Z,5.90
2018-06-05T12:56:42.518Z,6.70
2018-06-05T12:59:14.830Z,5.10
2018-06-05T13:01:42.157Z,3.60
2018-06-05T13:04:09.511Z,4.70
2018-06-05T13:06:36.840Z,4.80
2018-06-05T13:09:06.414Z,5.50
2018-06-05T13:11:33.854Z,3.50
2018-06-05T13:16:30.978Z,4.20
2018-06-05T13:18:58.302Z,4.60
2018-06-05T13:21:25.642Z,4.20
2018-06-05T13:23:52.988Z,4.80
2018-06-05T13:26:20.308Z,3.90
2018-06-05T13:28:47.658Z,3.30
2018-06-05T13:31:14.978Z,4.00
2018-06-05T13:33:42.357Z,3.20
2018-06-05T13:36:09.684Z,1.60
2018-06-05T13:38:37.032Z,1.60
2018-06-05T13:41:04.402Z,2.20
2018-06-05T13:43:31.747Z,2.50
2018-06-05T13:45:59.065Z,2.00
2018-06-05T13:48:26.410Z,3.20
2018-06-05T13:50:53.721Z,1.80
2018-06-05T13:53:21.072Z,1.50
2018-06-05T13:55:48.539Z,1.20
2018-06-05T13:58:15.954Z,3.00
2018-06-05T14:00:43.406Z,1.90
2018-06-05T14:03:10.771Z,2.00
2018-06-05T14:05:38.147Z,2.20
2018-06-05T14:08:05.533Z,2.70
2018-06-05T14:10:32.890Z,2.40
2018-06-05T14:13:00.226Z,3.30
2018-06-05T14:15:27.522Z,1.00
2018-06-05T14:17:54.843Z,1.10
2018-06-05T14:20:22.215Z,1.60
2018-06-05T14:22:49.627Z,1.00
2018-06-05T14:25:16.986Z,1.00
2018-06-05T14:27:44.434Z,1.00
2018-06-05T14:30:11.868Z,1.90
2018-06-05T14:32:39.412Z,1.40
2018-06-05T14:35:06.781Z,1.80
2018-06-05T14:37:34.090Z,1.50
2018-06-05T14:40:01.407Z,1.30
2018-06-05T14:42:28.794Z,1.00
2018-06-05T14:44:58.949Z,1.30
2018-06-05T14:47:26.342Z,1.00
2018-06-05T14:49:53.660Z,1.00
2018-06-05T14:52:28.425Z,1.00
2018-06-05T14:55:00.628Z,1.00
2018-06-05T14:57:27.923Z,1.00
2018-06-05T14:59:55.934Z,1.00
2018-06-05T15:02:23.481Z,1.00
2018-06-05T15:04:50.799Z,1.00
2018-06-05T15:07:22.375Z,1.00
2018-06-05T15:09:49.814Z,1.00
2018-06-05T15:12:17.434Z,1.00
2018-06-05T15:14:44.924Z,1.30
2018-06-05T15:17:12.333Z,1.00
2018-06-05T15:19:39.761Z,1.00
2018-06-05T15:22:12.614Z,1.00
2018-06-05T15:24:40.035Z,1.00
2018-06-05T15:27:07.535Z,1.00
2018-06-05T15:29:34.871Z,1.00
2018-06-05T15:32:02.197Z,1.00
2018-06-05T15:34:29.586Z,1.00
2018-06-05T15:37:04.728Z,1.90
2018-06-05T15:39:32.037Z,1.00
2018-06-05T15:41:59.387Z,2.60
2018-06-05T15:44:26.772Z,1.00
2018-06-05T15:46:54.130Z,1.00
2018-06-05T15:49:21.431Z,1.00
2018-06-05T15:51:52.255Z,1.00
2018-06-05T15:54:19.593Z,1.00
2018-06-05T15:56:46.939Z,1.00
2018-06-05T15:59:14.390Z,1.80
2018-06-05T16:01:41.902Z,1.00
2018-06-05T16:04:09.274Z,1.00
2018-06-05T16:06:38.520Z,1.00
2018-06-05T16:09:07.926Z,1.00
2018-06-05T16:11:39.731Z,1.00
2018-06-05T16:14:07.102Z,1.00
2018-06-05T16:16:34.443Z,1.00
2018-06-05T16:19:02.081Z,1.00
2018-06-05T16:21:29.414Z,1.00
2018-06-05T16:23:56.838Z,1.00
2018-06-05T16:26:24.217Z,1.00
2018-06-05T16:28:51.705Z,1.30
2018-06-05T16:31:19.126Z,1.00
2018-06-05T16:33:47.137Z,1.60
2018-06-05T16:36:14.472Z,1.00
2018-06-05T16:38:41.895Z,1.00
2018-06-05T16:41:09.264Z,1.00
2018-06-05T16:43:36.692Z,1.00
2018-06-05T16:46:04.142Z,1.00
2018-06-05T16:48:32.575Z,1.00
2018-06-05T16:51:00.023Z,1.00
2018-06-05T16:53:27.562Z,1.00
2018-06-05T16:55:54.975Z,1.00
2018-06-05T16:58:22.367Z,1.00
2018-06-05T17:00:53.443Z,1.00
2018-06-05T17:03:20.774Z,1.00
2018-06-05T17:05:48.119Z,1.00
2018-06-05T17:08:20.370Z,1.00
2018-06-05T17:10:47.934Z,1.00
2018-06-05T17:13:15.501Z,1.00
2018-06-05T17:15:43.038Z,1.00
2018-06-05T17:18:10.611Z,1.50
2018-06-05T17:20:38.136Z,1.00
2018-06-05T17:23:08.911Z,1.00
2018-06-05T17:25:36.461Z,1.00
2018-06-05T17:28:04.029Z,1.10
2018-06-05T17:30:32.114Z,1.70
2018-06-05T17:33:04.511Z,1.40
2018-06-05T17:35:32.146Z,2.10
2018-06-05T17:37:59.901Z,1.10
2018-06-05T17:40:27.680Z,1.40
2018-06-05T17:42:55.239Z,1.90
2018-06-05T17:45:35.594Z,2.00
2018-06-05T17:48:03.218Z,1.40
2018-06-05T17:50:30.815Z,2.30
2018-06-05T17:52:58.367Z,2.60
2018-06-05T17:55:27.669Z,2.50
2018-06-05T17:57:55.231Z,3.00
2018-06-05T18:00:22.832Z,3.40
2018-06-05T18:02:54.814Z,3.60
2018-06-05T18:05:22.375Z,3.90
2018-06-05T18:07:50.013Z,3.80
2018-06-05T18:10:18.465Z,3.90
2018-06-05T18:12:47.202Z,4.40
2018-06-05T18:15:14.837Z,3.90
2018-06-05T18:17:42.378Z,4.00
2018-06-05T18:20:09.910Z,4.50
2018-06-05T18:22:37.574Z,4.50
2018-06-05T18:25:05.382Z,4.80
2018-06-05T18:27:33.226Z,5.20
2018-06-05T18:30:01.002Z,5.50
2018-06-05T18:32:28.817Z,5.50
2018-06-05T18:34:56.775Z,5.50
2018-06-05T18:37:24.606Z,5.20
2018-06-05T18:39:52.112Z,5.90
2018-06-05T18:42:19.662Z,6.20
2018-06-05T18:44:47.267Z,6.50
2018-06-05T18:47:15.047Z,6.50
2018-06-05T18:49:42.566Z,5.80
2018-06-05T18:52:10.108Z,6.20
2018-06-05T18:54:37.802Z,6.60
2018-06-05T18:57:05.454Z,6.40
2018-06-05T18:59:33.014Z,6.10
2018-06-05T19:02:00.571Z,7.00
2018-06-05T19:04:28.127Z,6.60
2018-06-05T19:06:55.799Z,6.60
2018-06-05T19:09:23.365Z,6.90
2018-06-05T19:11:50.909Z,6.80
2018-06-05T19:14:18.713Z,7.30
2018-06-05T19:16:46.394Z,7.00
2018-06-05T19:21:47.811Z,7.70
2018-06-05T19:24:15.356Z,8.50
2018-06-05T19:26:42.889Z,7.50
2018-06-05T19:29:10.440Z,7.80
2018-06-05T19:31:37.983Z,8.30
2018-06-05T19:34:05.542Z,8.00
2018-06-05T19:36:33.064Z,8.20
2018-06-05T19:39:00.607Z,8.10
2018-06-05T19:41:28.290Z,8.20
2018-06-05T19:43:55.842Z,8.20
2018-06-05T19:46:23.448Z,8.20
2018-06-05T19:48:50.923Z,8.40
2018-06-05T19:51:18.474Z,8.10
2018-06-05T19:53:46.067Z,9.40
2018-06-05T19:58:41.383Z,9.70
2018-06-05T20:01:08.958Z,9.70
2018-06-05T20:03:36.461Z,10.40
2018-06-05T20:06:04.039Z,10.10
2018-06-05T20:08:31.720Z,10.40
2018-06-05T20:10:59.278Z,10.20
2018-06-05T20:13:26.825Z,11.30
2018-06-05T20:15:54.461Z,12.10
2018-06-05T20:18:22.390Z,12.60
2018-06-05T20:20:50.099Z,11.60
2018-06-05T20:23:17.710Z,12.00
2018-06-05T20:25:45.396Z,12.10
2018-06-05T20:28:12.918Z,12.20
2018-06-05T20:30:40.722Z,12.40
2018-06-05T20:33:08.358Z,13.00
2018-06-05T20:35:36.441Z,13.10
2018-06-05T20:38:04.030Z,12.60
2018-06-05T20:40:31.694Z,13.70
2018-06-05T20:42:59.410Z,13.10
2018-06-05T20:45:27.030Z,13.00
2018-06-05T20:47:54.609Z,12.90
2018-06-05T20:50:22.196Z,13.50
2018-06-05T20:52:49.838Z,13.70
2018-06-05T20:55:17.395Z,13.50
2018-06-05T20:57:45.112Z,13.60
2018-06-05T21:03:09.637Z,14.70
2018-06-05T21:05:37.196Z,13.60
2018-06-05T21:08:04.950Z,14.20
2018-06-05T21:10:32.507Z,15.10
2018-06-05T21:13:00.266Z,16.00
2018-06-05T21:15:27.814Z,15.60
2018-06-05T21:17:55.293Z,15.70
2018-06-05T21:22:50.368Z,15.10
2018-06-05T21:25:17.951Z,16.00
2018-06-05T21:27:45.555Z,15.60
2018-06-05T21:30:13.066Z,15.40
2018-06-05T21:32:46.217Z,16.90
2018-06-05T21:35:13.728Z,16.70
2018-06-05T21:40:08.795Z,15.60
2018-06-05T21:42:36.418Z,17.20
2018-06-05T21:45:04.216Z,17.10
2018-06-05T21:47:31.738Z,17.00
2018-06-05T21:49:59.274Z,17.00
2018-06-05T21:52:26.895Z,17.00
2018-06-05T21:54:54.428Z,17.90
2018-06-05T21:57:21.950Z,18.10
2018-06-05T21:59:49.517Z,17.70
2018-06-05T22:02:17.082Z,17.80
2018-06-05T22:04:44.591Z,18.70
2018-06-05T22:07:12.150Z,19.20
2018-06-05T22:09:39.811Z,19.20
2018-06-05T22:12:13.201Z,18.70
2018-06-05T22:14:41.030Z,18.20
2018-06-05T22:17:08.348Z,19.30
2018-06-05T22:19:35.690Z,20.60
2018-06-05T22:22:03.087Z,19.00
2018-06-05T22:24:30.824Z,19.10
2018-06-05T22:26:58.210Z,19.70
2018-06-05T22:29:25.598Z,19.60
2018-06-05T22:31:52.951Z,19.60
2018-06-05T22:34:20.404Z,19.90
2018-06-05T22:36:48.058Z,20.90
2018-06-05T22:39:15.533Z,21.70
2018-06-05T22:41:42.931Z,20.80
2018-06-05T22:44:10.306Z,21.60
2018-06-05T22:46:37.683Z,22.90
2018-06-05T22:49:05.383Z,22.70
2018-06-05T22:51:32.749Z,22.70
2018-06-05T22:54:00.174Z,22.60
2018-06-05T22:56:27.635Z,24.20
2018-06-05T22:58:55.026Z,24.10
2018-06-05T23:01:22.585Z,26.10
2018-06-05T23:03:49.911Z,25.10
2018-06-05T23:06:17.375Z,24.20
2018-06-05T23:08:44.854Z,24.40
2018-06-05T23:11:12.189Z,24.50
2018-06-05T23:13:39.966Z,25.90
2018-06-05T23:16:07.306Z,23.80
2018-06-05T23:18:34.685Z,23.50
2018-06-05T23:21:02.272Z,24.60
2018-06-05T23:23:29.606Z,26.80
2018-06-05T23:25:57.685Z,28.00
2018-06-05T23:28:25.023Z,26.20
2018-06-05T23:30:52.388Z,26.40
2018-06-05T23:33:19.693Z,26.20
2018-06-05T23:35:46.969Z,25.80
2018-06-05T23:38:14.280Z,26.20
2018-06-05T23:40:41.933Z,26.10
2018-06-05T23:43:09.323Z,24.50
2018-06-05T23:45:36.657Z,26.20
2018-06-05T23:48:04.088Z,24.20
2018-06-05T23:50:31.620Z,24.30
2018-06-05T23:52:59.360Z,23.50
2018-06-05T23:55:26.931Z,24.80
2018-06-05T23:57:55.127Z,25.90
